createdAt,value
2022-12-01T00:01:08.317Z,99016.00
2022-12-01T00:04:16.114Z,99020.00
2022-12-01T00:07:24.216Z,99020.40
2022-12-01T00:10:32.884Z,99020.20
2022-12-01T00:13:41.164Z,99025.60
2022-12-01T00:16:49.444Z,99018.20
2022-12-01T00:19:57.527Z,99020.80
2022-12-01T00:23:06.100Z,99023.40
2022-12-01T00:26:14.785Z,99024.60
2022-12-01T00:29:22.822Z,99033.40
2022-12-01T00:32:32.500Z,99035.80
2022-12-01T00:35:40.381Z,99036.60
2022-12-01T00:38:48.590Z,99037.80
2022-12-01T00:41:56.316Z,99034.20
2022-12-01T00:45:07.431Z,99038.60
2022-12-01T00:48:15.326Z,99038.20
2022-12-01T00:51:23.431Z,99034.60
2022-12-01T00:54:32.727Z,99038.80
2022-12-01T00:57:40.374Z,99040.40
2022-12-01T01:00:48.421Z,99040.60
2022-12-01T01:03:56.254Z,99042.60
2022-12-01T01:07:04.750Z,99040.00
2022-12-01T01:10:15.220Z,99039.80
2022-12-01T01:13:23.219Z,99035.20
2022-12-01T01:16:31.915Z,99038.00
2022-12-01T01:19:39.865Z,99032.00
2022-12-01T01:22:47.606Z,99026.00
2022-12-01T01:25:55.516Z,99026.00
2022-12-01T01:29:07.617Z,99030.60
2022-12-01T01:32:15.404Z,99036.00
2022-12-01T01:35:23.221Z,99036.60
2022-12-01T01:38:32.332Z,99034.80
2022-12-01T01:41:40.229Z,99029.00
2022-12-01T01:44:57.861Z,99030.20
2022-12-01T01:48:06.298Z,99030.40
2022-12-01T01:51:17.029Z,99031.80
2022-12-01T01:54:31.624Z,99029.00
2022-12-01T01:57:40.590Z,99034.80
2022-12-01T02:00:49.615Z,99030.80
2022-12-01T02:03:59.775Z,99032.60
2022-12-01T02:07:09.465Z,99033.20
2022-12-01T02:10:22.813Z,99033.20
2022-12-01T02:13:43.833Z,99037.60
2022-12-01T02:17:03.059Z,99039.80
2022-12-01T02:20:47.131Z,99038.60
2022-12-01T02:24:30.316Z,99038.20
2022-12-01T02:28:04.191Z,99039.80
2022-12-01T02:31:19.194Z,99038.20
2022-12-01T02:34:37.102Z,99029.00
2022-12-01T02:37:57.243Z,99026.80
2022-12-01T02:41:16.080Z,99028.00
2022-12-01T02:44:30.568Z,99024.00
2022-12-01T02:47:42.508Z,99023.40
2022-12-01T02:50:52.564Z,99022.60
2022-12-01T02:54:03.640Z,99019.80
2022-12-01T02:57:15.538Z,99013.40
2022-12-01T03:00:23.885Z,99010.20
2022-12-01T03:03:57.697Z,99007.20
2022-12-01T03:07:20.775Z,99008.20
2022-12-01T03:10:41.468Z,99001.40
2022-12-01T03:14:02.644Z,98998.60
2022-12-01T03:17:18.062Z,98992.40
2022-12-01T03:20:35.691Z,98987.00
2022-12-01T03:23:49.139Z,98981.20
2022-12-01T03:27:01.323Z,98994.40
2022-12-01T03:30:12.791Z,99001.00
2022-12-01T03:33:30.336Z,99001.60
2022-12-01T03:36:44.175Z,98998.40
2022-12-01T03:40:00.234Z,99003.20
2022-12-01T03:43:16.324Z,99001.40
2022-12-01T03:46:34.387Z,99002.40
2022-12-01T03:49:44.009Z,98993.80
2022-12-01T03:53:01.295Z,98997.00
2022-12-01T03:56:11.349Z,98997.20
2022-12-01T03:59:23.890Z,98989.60
2022-12-01T04:02:33.466Z,98983.80
2022-12-01T04:05:48.624Z,98979.40
2022-12-01T04:08:56.817Z,98982.60
2022-12-01T04:12:22.316Z,98988.60
2022-12-01T04:15:31.117Z,98986.80
2022-12-01T04:18:38.742Z,98981.60
2022-12-01T04:21:46.656Z,98981.20
2022-12-01T04:24:55.240Z,98977.00
2022-12-01T04:28:03.553Z,98982.20
2022-12-01T04:31:11.307Z,98986.40
2022-12-01T04:34:19.292Z,98989.20
2022-12-01T04:37:27.031Z,98986.40
2022-12-01T04:40:34.926Z,98986.20
2022-12-01T04:43:43.296Z,98986.20
2022-12-01T04:46:52.194Z,98990.60
2022-12-01T04:50:00.636Z,99004.80
2022-12-01T04:53:08.951Z,99020.80
2022-12-01T04:56:16.853Z,99022.40
2022-12-01T04:59:25.188Z,99017.20
2022-12-01T05:02:33.032Z,99018.80
2022-12-01T05:05:40.871Z,99024.00
2022-12-01T05:08:49.149Z,99030.40
2022-12-01T05:11:57.945Z,99034.20
2022-12-01T05:15:06.563Z,99034.40
2022-12-01T05:18:14.508Z,99038.00
2022-12-01T05:21:22.301Z,99040.60
2022-12-01T05:24:30.356Z,99034.60
2022-12-01T05:27:38.172Z,99038.60
2022-12-01T05:30:46.266Z,99032.40
2022-12-01T05:33:54.168Z,99040.60
2022-12-01T05:37:02.419Z,99034.40
2022-12-01T05:40:13.188Z,99037.80
2022-12-01T05:43:27.142Z,99035.00
2022-12-01T05:46:36.872Z,99044.20
2022-12-01T05:49:45.028Z,99037.80
2022-12-01T05:52:52.836Z,99036.20
2022-12-01T05:56:00.793Z,99036.60
2022-12-01T05:59:09.192Z,99040.40
2022-12-01T06:02:17.084Z,99037.00
2022-12-01T06:05:25.015Z,99042.00
2022-12-01T06:08:33.122Z,99045.40
2022-12-01T06:11:41.378Z,99043.00
2022-12-01T06:14:49.774Z,99046.00
2022-12-01T06:18:00.022Z,99056.20
2022-12-01T06:21:10.177Z,99060.80
2022-12-01T06:24:16.229Z,99062.60
2022-12-01T06:27:25.703Z,99058.20
2022-12-01T06:30:33.409Z,99065.00
2022-12-01T06:33:41.603Z,99065.40
2022-12-01T06:36:49.189Z,99059.60
2022-12-01T06:39:57.816Z,99064.00
2022-12-01T06:43:07.124Z,99065.40
2022-12-01T06:46:18.819Z,99066.00
2022-12-01T06:49:27.033Z,99067.80
2022-12-01T06:52:35.390Z,99065.20
2022-12-01T06:55:43.466Z,99060.20
2022-12-01T06:58:51.958Z,99061.20
2022-12-01T07:02:00.759Z,99063.40
2022-12-01T07:05:09.894Z,99065.00
2022-12-01T07:08:17.829Z,99066.80
2022-12-01T07:11:25.846Z,99064.20
2022-12-01T07:14:33.667Z,99069.60
2022-12-01T07:17:41.604Z,99067.80
2022-12-01T07:20:50.078Z,99070.00
2022-12-01T07:23:59.272Z,99075.40
2022-12-01T07:27:07.088Z,99076.00
2022-12-01T07:30:16.307Z,99077.00
2022-12-01T07:33:23.912Z,99073.40
2022-12-01T07:36:31.822Z,99073.80
2022-12-01T07:39:39.701Z,99071.20
2022-12-01T07:42:48.071Z,99069.80
2022-12-01T07:45:56.556Z,99065.20
2022-12-01T07:49:06.929Z,99069.60
2022-12-01T07:52:14.758Z,99069.40
2022-12-01T07:55:22.560Z,99067.20
2022-12-01T07:58:31.009Z,99076.40
2022-12-01T08:01:44.075Z,99076.60
2022-12-01T08:04:55.091Z,99078.20
2022-12-01T08:08:03.833Z,99078.00
2022-12-01T08:11:17.457Z,99078.20
2022-12-01T08:14:25.347Z,99083.40
2022-12-01T08:17:33.106Z,99082.00
2022-12-01T08:20:40.959Z,99079.80
2022-12-01T08:23:50.001Z,99079.80
2022-12-01T08:26:57.943Z,99080.20
2022-12-01T08:30:08.984Z,99085.80
2022-12-01T08:33:17.343Z,99086.00
2022-12-01T08:36:26.471Z,99091.00
2022-12-01T08:39:34.491Z,99094.40
2022-12-01T08:42:42.892Z,99086.20
2022-12-01T08:45:52.002Z,99087.00
2022-12-01T08:49:00.644Z,99086.20
2022-12-01T08:52:09.643Z,99089.00
2022-12-01T08:55:18.049Z,99089.60
2022-12-01T08:58:28.541Z,99090.40
2022-12-01T09:01:51.808Z,99086.20
2022-12-01T09:05:00.762Z,99092.20
2022-12-01T09:08:34.944Z,99098.00
2022-12-01T09:11:44.497Z,99101.00
2022-12-01T09:14:53.213Z,99098.60
2022-12-01T09:18:01.845Z,99092.60
2022-12-01T09:21:17.855Z,99094.80
2022-12-01T09:24:26.681Z,99093.20
2022-12-01T09:27:34.488Z,99089.40
2022-12-01T09:30:42.361Z,99086.40
2022-12-01T09:33:50.405Z,99087.80
2022-12-01T09:37:00.900Z,99082.00
2022-12-01T09:40:15.612Z,99081.00
2022-12-01T09:43:29.046Z,99074.60
2022-12-01T09:46:43.656Z,99072.60
2022-12-01T09:50:01.246Z,99073.40
2022-12-01T09:53:16.303Z,99071.60
2022-12-01T09:56:29.251Z,99064.60
2022-12-01T09:59:43.718Z,99063.60
2022-12-01T10:03:01.324Z,99058.20
2022-12-01T10:06:32.282Z,99056.80
2022-12-01T10:09:51.328Z,99054.60
2022-12-01T10:13:00.904Z,99053.20
2022-12-01T10:16:18.262Z,99048.80
2022-12-01T10:19:35.089Z,99043.60
2022-12-01T10:23:08.664Z,99038.20
2022-12-01T10:26:26.564Z,99035.60
2022-12-01T10:29:47.774Z,99038.60
2022-12-01T10:33:01.931Z,99033.40
2022-12-01T10:36:11.998Z,99030.20
2022-12-01T10:39:30.509Z,99031.40
2022-12-01T10:42:44.922Z,99029.20
2022-12-01T10:45:53.218Z,99032.20
2022-12-01T10:49:09.284Z,99022.60
2022-12-01T10:52:39.707Z,99027.00
2022-12-01T10:55:50.761Z,99024.20
2022-12-01T10:59:17.233Z,99019.80
2022-12-01T11:02:29.324Z,99018.60
2022-12-01T11:05:43.626Z,99015.20
2022-12-01T11:08:59.308Z,99011.80
2022-12-01T11:12:14.791Z,99008.00
2022-12-01T11:15:32.492Z,99012.20
2022-12-01T11:18:41.952Z,99015.20
2022-12-01T11:21:53.536Z,99006.80
2022-12-01T11:25:19.698Z,99003.40
2022-12-01T11:28:28.323Z,98998.20
2022-12-01T11:31:45.084Z,98999.60
2022-12-01T11:35:01.069Z,98995.80
2022-12-01T11:38:29.656Z,98987.20
2022-12-01T11:41:42.971Z,98983.40
2022-12-01T11:44:56.590Z,98988.60
2022-12-01T11:48:25.865Z,98991.00
2022-12-01T11:51:37.861Z,98991.40
2022-12-01T11:55:08.231Z,98989.40
2022-12-01T11:58:17.555Z,98989.80
2022-12-01T12:01:51.357Z,98993.20
2022-12-01T12:05:40.247Z,98988.40
2022-12-01T12:09:15.696Z,98980.20
2022-12-01T12:12:43.527Z,98984.40
2022-12-01T12:16:09.007Z,98978.20
2022-12-01T12:20:00.185Z,98982.80
2022-12-01T12:23:33.506Z,98982.80
2022-12-01T12:26:54.981Z,98979.60
2022-12-01T12:30:26.515Z,98979.00
2022-12-01T12:34:14.330Z,98984.40
2022-12-01T12:37:33.067Z,98988.20
2022-12-01T12:40:54.897Z,98981.40
2022-12-01T12:44:36.769Z,98981.40
2022-12-01T12:48:07.279Z,98979.20
2022-12-01T12:51:20.932Z,98976.60
2022-12-01T12:54:37.641Z,98976.00
2022-12-01T12:57:59.130Z,98973.80
2022-12-01T13:01:17.194Z,98977.20
2022-12-01T13:04:33.397Z,98982.20
2022-12-01T13:07:50.762Z,98979.20
2022-12-01T13:11:06.387Z,98971.80
2022-12-01T13:14:26.536Z,98964.40
2022-12-01T13:17:45.547Z,98979.40
2022-12-01T13:20:56.765Z,98975.60
2022-12-01T13:24:12.487Z,98980.20
2022-12-01T13:27:25.196Z,98972.80
2022-12-01T13:30:33.238Z,98972.60
2022-12-01T13:33:46.471Z,98969.80
2022-12-01T13:36:57.020Z,98969.80
2022-12-01T13:40:24.127Z,98970.80
2022-12-01T13:43:32.021Z,98970.40
2022-12-01T13:47:01.024Z,98970.40
2022-12-01T13:51:07.626Z,98970.80
2022-12-01T13:54:34.503Z,98970.00
2022-12-01T13:57:42.159Z,98966.80
2022-12-01T14:00:51.037Z,98969.40
2022-12-01T14:04:01.864Z,98977.20
2022-12-01T14:07:28.642Z,98977.20
2022-12-01T14:10:38.667Z,98978.00
2022-12-01T14:13:50.904Z,98980.40
2022-12-01T14:17:02.754Z,98970.40
2022-12-01T14:20:23.859Z,98970.60
2022-12-01T14:23:35.248Z,98970.00
2022-12-01T14:26:50.372Z,98971.40
2022-12-01T14:29:58.995Z,98972.80
2022-12-01T14:33:54.075Z,98973.40
2022-12-01T14:37:08.324Z,98968.40
2022-12-01T14:40:29.990Z,98967.60
2022-12-01T14:43:57.240Z,98968.00
2022-12-01T14:47:16.035Z,98967.00
2022-12-01T14:50:34.457Z,98963.00
2022-12-01T14:53:50.023Z,98964.40
2022-12-01T14:57:06.885Z,98968.80
2022-12-01T15:00:23.974Z,98968.20
2022-12-01T15:03:38.902Z,98970.40
2022-12-01T15:06:47.272Z,98974.20
2022-12-01T15:10:06.575Z,98971.60
2022-12-01T15:13:30.577Z,98968.00
2022-12-01T15:19:47.402Z,98970.20
2022-12-01T15:34:05.051Z,98969.60
2022-12-01T15:44:36.231Z,98974.60
2022-12-01T15:47:55.699Z,98974.20
2022-12-01T15:51:17.467Z,98975.00
2022-12-01T15:54:28.414Z,98977.40
2022-12-01T15:57:37.520Z,98977.60
2022-12-01T16:01:00.536Z,98980.60
2022-12-01T16:04:19.858Z,98978.80
2022-12-01T16:08:04.922Z,98989.80
2022-12-01T16:11:22.383Z,98989.40
2022-12-01T16:14:35.618Z,98992.60
2022-12-01T16:18:32.280Z,98985.60
2022-12-01T16:21:55.901Z,98982.20
2022-12-01T16:25:07.501Z,98975.00
2022-12-01T16:28:37.145Z,98980.40
2022-12-01T16:32:12.544Z,98980.00
2022-12-01T16:35:30.508Z,98976.60
2022-12-01T16:38:38.469Z,98981.00
2022-12-01T16:41:48.172Z,98982.60
2022-12-01T16:44:58.545Z,98974.20
2022-12-01T16:48:09.421Z,98971.40
2022-12-01T16:51:29.390Z,98972.80
2022-12-01T16:54:38.662Z,98978.20
2022-12-01T16:57:46.981Z,98980.20
2022-12-01T17:00:56.016Z,98982.40
2022-12-01T17:04:07.808Z,98979.40
2022-12-01T17:07:17.939Z,98983.60
2022-12-01T17:10:29.270Z,98981.60
2022-12-01T17:14:13.004Z,98987.80
2022-12-01T17:17:41.425Z,98992.40
2022-12-01T17:21:06.891Z,98995.80
2022-12-01T17:24:19.055Z,98998.20
2022-12-01T17:27:28.338Z,98995.60
2022-12-01T17:30:37.351Z,98999.40
2022-12-01T17:33:45.593Z,98998.40
2022-12-01T17:36:54.217Z,98990.00
2022-12-01T17:40:01.946Z,98985.00
2022-12-01T17:43:11.541Z,98978.80
2022-12-01T17:46:19.468Z,98980.80
2022-12-01T17:49:28.226Z,98984.40
2022-12-01T17:52:36.505Z,98982.40
2022-12-01T17:55:45.280Z,98984.60
2022-12-01T17:58:54.625Z,98986.00
2022-12-01T18:02:02.949Z,98981.60
2022-12-01T18:05:12.412Z,98986.60
2022-12-01T18:08:20.706Z,98984.00
2022-12-01T18:11:29.611Z,98987.60
2022-12-01T18:14:39.296Z,98991.00
2022-12-01T18:17:48.210Z,98990.80
2022-12-01T18:20:56.356Z,98990.00
2022-12-01T18:24:09.013Z,98988.80
2022-12-01T18:27:19.463Z,98987.20
2022-12-01T18:30:27.226Z,98986.80
2022-12-01T18:33:37.488Z,98988.40
2022-12-01T18:36:45.501Z,98991.60
2022-12-01T18:39:55.967Z,98995.20
2022-12-01T18:43:04.082Z,98983.20
2022-12-01T18:46:13.930Z,98983.80
2022-12-01T18:49:22.234Z,98983.40
2022-12-01T18:52:32.674Z,98978.40
2022-12-01T18:55:41.920Z,98976.40
2022-12-01T18:58:54.753Z,98979.40
2022-12-01T19:02:02.710Z,98975.40
2022-12-01T19:05:13.512Z,98976.20
2022-12-01T19:08:21.686Z,98978.80
2022-12-01T19:11:30.640Z,98984.00
2022-12-01T19:14:38.615Z,98982.80
2022-12-01T19:17:47.000Z,98988.00
2022-12-01T19:20:54.794Z,98993.80
2022-12-01T19:24:02.828Z,98994.00
2022-12-01T19:27:11.027Z,98995.00
2022-12-01T19:30:21.573Z,98994.20
2022-12-01T19:33:29.739Z,98999.80
2022-12-01T19:36:38.408Z,98994.80
2022-12-01T19:39:46.256Z,99002.40
2022-12-01T19:42:57.306Z,99000.00
2022-12-01T19:46:14.638Z,98999.00
2022-12-01T19:49:23.573Z,98999.40
2022-12-01T19:52:31.601Z,99002.40
2022-12-01T19:55:41.924Z,99005.40
2022-12-01T19:58:49.771Z,99006.40
2022-12-01T20:01:58.087Z,98997.00
2022-12-01T20:05:07.159Z,99000.60
2022-12-01T20:08:15.103Z,99003.80
2022-12-01T20:11:24.254Z,99003.20
2022-12-01T20:14:33.675Z,99000.00
2022-12-01T20:17:42.415Z,99009.20
2022-12-01T20:20:50.461Z,99002.00
2022-12-01T20:24:00.981Z,99003.60
2022-12-01T20:27:09.319Z,99008.00
2022-12-01T20:30:18.728Z,99009.60
2022-12-01T20:33:27.871Z,99020.00
2022-12-01T20:36:36.225Z,99012.00
2022-12-01T20:39:43.991Z,99014.40
2022-12-01T20:42:51.951Z,99013.60
2022-12-01T20:46:00.158Z,99011.60
2022-12-01T20:49:08.536Z,99010.00
2022-12-01T20:52:16.586Z,99010.60
2022-12-01T20:55:24.811Z,99010.40
2022-12-01T20:58:37.213Z,99009.20
2022-12-01T21:01:45.762Z,99005.20
2022-12-01T21:04:58.800Z,99009.20
2022-12-01T21:08:10.271Z,99009.40
2022-12-01T21:11:44.775Z,99010.80
2022-12-01T21:15:12.560Z,99018.00
2022-12-01T21:18:27.334Z,99010.80
2022-12-01T21:21:39.966Z,99019.40
2022-12-01T21:24:52.051Z,99025.60
2022-12-01T21:28:14.706Z,99022.20
2022-12-01T21:31:23.042Z,99015.00
2022-12-01T21:34:35.050Z,99023.20
2022-12-01T21:37:43.309Z,99023.00
2022-12-01T21:40:51.710Z,99028.20
2022-12-01T21:44:14.133Z,99033.40
2022-12-01T21:47:24.472Z,99035.00
2022-12-01T21:50:33.030Z,99040.60
2022-12-01T21:53:42.875Z,99038.60
2022-12-01T21:56:50.765Z,99037.40
2022-12-01T22:00:26.205Z,99034.40
2022-12-01T22:03:39.857Z,99042.40
2022-12-01T22:06:50.988Z,99045.00
2022-12-01T22:10:02.490Z,99042.00
2022-12-01T22:13:17.196Z,99041.20
2022-12-01T22:16:32.854Z,99039.60
2022-12-01T22:19:46.781Z,99033.60
2022-12-01T22:22:56.235Z,99031.00
2022-12-01T22:26:13.850Z,99027.40
2022-12-01T22:29:38.367Z,99024.20
2022-12-01T22:33:03.930Z,99030.00
2022-12-01T22:36:26.555Z,99028.80
2022-12-01T22:39:35.705Z,99021.60
2022-12-01T22:42:43.933Z,99022.00
2022-12-01T22:46:03.517Z,99020.00
2022-12-01T22:49:22.540Z,99015.20
2022-12-01T22:52:32.760Z,99008.40
2022-12-01T22:55:40.889Z,99012.60
2022-12-01T22:58:48.917Z,99017.40
2022-12-01T23:01:59.581Z,99008.60
2022-12-01T23:05:25.681Z,99009.20
2022-12-01T23:08:34.539Z,99004.20
2022-12-01T23:11:43.521Z,99007.00
2022-12-01T23:14:56.200Z,99007.40
2022-12-01T23:18:16.262Z,99002.80
2022-12-01T23:21:24.431Z,99003.80
2022-12-01T23:24:34.159Z,99007.00
2022-12-01T23:27:41.227Z,99004.20
2022-12-01T23:30:53.468Z,99004.40
2022-12-01T23:34:01.670Z,99010.00
2022-12-01T23:37:33.179Z,99007.40
2022-12-01T23:40:41.712Z,99018.60
2022-12-01T23:43:50.043Z,99014.80
2022-12-01T23:47:00.948Z,99017.60
2022-12-01T23:50:21.291Z,99014.20
2022-12-01T23:53:34.441Z,99014.20
2022-12-01T23:56:42.850Z,99019.40
2022-12-01T23:59:52.224Z,99018.80
